JAL125 ZSQD-RJAA
Flight info
| Callsign | JAL125 |
|---|---|
| Flight time | N/A |
| Altitude | 37100 |
| Route | LAT81D LATUX W209 AGAVO/N0469F371 Y644 EGOBA Y697 LANAT Y51 SAMON Y517 ESKAS ENTAK Y30 SWAMP |
| Aircraft | B77W/H-SDE1E2E3FGHIJ2J3J4J5M1RWXY/LB1D1 |
Departure
| Time | 2026-04-14 12:07 |
|---|---|
| Airport | Qingdao Jiaodong International Airport (ZSQD) |
Arrival
| Time | N/A |
|---|---|
| Airport | Narita International Airport (RJAA) |
| Time | Latitude | Longitude | Altitude | Speed | Heading |
|---|---|---|---|---|---|
| 2026-04-14 11:12 | 36.36611 | 120.08491 | 42 ft | 0 kts | 77° |
| 2026-04-14 11:52 | 36.36611 | 120.08487 | 41 ft | 2 kts | 77° |
| 2026-04-14 11:52 | 36.36607 | 120.08467 | 41 ft | 2 kts | 76° |
| 2026-04-14 11:52 | 36.36603 | 120.08447 | 40 ft | 2 kts | 75° |
| 2026-04-14 11:53 | 36.36598 | 120.08428 | 39 ft | 2 kts | 74° |
| 2026-04-14 11:53 | 36.36594 | 120.08408 | 39 ft | 2 kts | 73° |
| 2026-04-14 11:53 | 36.36589 | 120.08389 | 39 ft | 2 kts | 71° |
| 2026-04-14 11:53 | 36.36583 | 120.08370 | 40 ft | 2 kts | 69° |
| 2026-04-14 11:54 | 36.36577 | 120.08351 | 41 ft | 2 kts | 66° |
| 2026-04-14 11:54 | 36.36570 | 120.08333 | 41 ft | 2 kts | 60° |
| 2026-04-14 11:54 | 36.36561 | 120.08316 | 39 ft | 2 kts | 49° |
| 2026-04-14 11:54 | 36.36549 | 120.08302 | 40 ft | 2 kts | 20° |
| 2026-04-14 11:55 | 36.36535 | 120.08299 | 40 ft | 1 kts | 346° |
| 2026-04-14 11:55 | 36.36532 | 120.08300 | 40 ft | 0 kts | 343° |
| 2026-04-14 11:55 | 36.36534 | 120.08300 | 40 ft | 0 kts | 343° |
| 2026-04-14 11:58 | 36.36535 | 120.08299 | 40 ft | 0 kts | 343° |
| 2026-04-14 11:59 | 36.36558 | 120.08291 | 37 ft | 9 kts | 343° |
| 2026-04-14 11:59 | 36.36654 | 120.08254 | 42 ft | 21 kts | 343° |
| 2026-04-14 11:59 | 36.36824 | 120.08188 | 41 ft | 27 kts | 342° |
| 2026-04-14 11:59 | 36.36950 | 120.08144 | 42 ft | 10 kts | 5° |
| 2026-04-14 12:00 | 36.36991 | 120.08212 | 41 ft | 10 kts | 70° |
| 2026-04-14 12:00 | 36.37013 | 120.08297 | 41 ft | 11 kts | 72° |
| 2026-04-14 12:00 | 36.37042 | 120.08410 | 41 ft | 16 kts | 72° |
| 2026-04-14 12:00 | 36.37085 | 120.08579 | 40 ft | 26 kts | 72° |
| 2026-04-14 12:01 | 36.37145 | 120.08807 | 40 ft | 28 kts | 72° |
| 2026-04-14 12:01 | 36.37204 | 120.09038 | 40 ft | 28 kts | 72° |
| 2026-04-14 12:01 | 36.37257 | 120.09252 | 39 ft | 14 kts | 73° |
| 2026-04-14 12:01 | 36.37294 | 120.09293 | 39 ft | 8 kts | 11° |
| 2026-04-14 12:02 | 36.37354 | 120.09285 | 38 ft | 9 kts | 346° |
| 2026-04-14 12:02 | 36.37429 | 120.09258 | 39 ft | 14 kts | 342° |
| 2026-04-14 12:02 | 36.37532 | 120.09217 | 40 ft | 19 kts | 342° |
| 2026-04-14 12:02 | 36.37675 | 120.09161 | 40 ft | 24 kts | 342° |
| 2026-04-14 12:03 | 36.37842 | 120.09095 | 40 ft | 25 kts | 342° |
| 2026-04-14 12:03 | 36.37998 | 120.09034 | 40 ft | 13 kts | 342° |
| 2026-04-14 12:03 | 36.38078 | 120.09051 | 40 ft | 13 kts | 53° |
| 2026-04-14 12:03 | 36.38105 | 120.09135 | 40 ft | 0 kts | 74° |
| 2026-04-14 12:05 | 36.38106 | 120.09141 | 40 ft | 3 kts | 74° |
| 2026-04-14 12:06 | 36.38113 | 120.09204 | 40 ft | 13 kts | 90° |
| 2026-04-14 12:06 | 36.38107 | 120.09301 | 41 ft | 9 kts | 102° |
| 2026-04-14 12:06 | 36.38060 | 120.09345 | 41 ft | 9 kts | 161° |
| 2026-04-14 12:06 | 36.37970 | 120.09381 | 41 ft | 27 kts | 162° |
| 2026-04-14 12:07 | 36.37568 | 120.09538 | 39 ft | 102 kts | 162° |
| 2026-04-14 12:07 | 36.36655 | 120.09895 | 49 ft | 169 kts | 163° |
| 2026-04-14 12:07 | 36.35461 | 120.10343 | 619 ft | 182 kts | 164° |
| 2026-04-14 12:07 | 36.34327 | 120.10944 | 1466 ft | 184 kts | 148° |
| 2026-04-14 12:08 | 36.33255 | 120.11830 | 2089 ft | 197 kts | 145° |
| 2026-04-14 12:08 | 36.32018 | 120.12845 | 2349 ft | 230 kts | 146° |
| 2026-04-14 12:08 | 36.30591 | 120.14001 | 2805 ft | 253 kts | 146° |
| 2026-04-14 12:08 | 36.29149 | 120.15251 | 3558 ft | 259 kts | 134° |
| 2026-04-14 12:09 | 36.28161 | 120.17108 | 4442 ft | 261 kts | 109° |
| 2026-04-14 12:09 | 36.27610 | 120.19264 | 5257 ft | 265 kts | 106° |
| 2026-04-14 12:09 | 36.27379 | 120.21534 | 5980 ft | 270 kts | 79° |
| 2026-04-14 12:09 | 36.28067 | 120.23684 | 6818 ft | 271 kts | 64° |
| 2026-04-14 12:10 | 36.28846 | 120.25849 | 7546 ft | 279 kts | 69° |
| 2026-04-14 12:10 | 36.29510 | 120.28119 | 8429 ft | 282 kts | 71° |
| 2026-04-14 12:10 | 36.30130 | 120.30453 | 9291 ft | 285 kts | 74° |
| 2026-04-14 12:10 | 36.30292 | 120.32913 | 9903 ft | 295 kts | 102° |
| 2026-04-14 12:11 | 36.29439 | 120.35230 | 10556 ft | 304 kts | 129° |
| 2026-04-14 12:11 | 36.27714 | 120.36883 | 10835 ft | 328 kts | 158° |
| 2026-04-14 12:11 | 36.25492 | 120.37802 | 11032 ft | 352 kts | 164° |
| 2026-04-14 12:11 | 36.23077 | 120.38691 | 11595 ft | 369 kts | 164° |
| 2026-04-14 12:12 | 36.20605 | 120.39599 | 12448 ft | 380 kts | 164° |
| 2026-04-14 12:12 | 36.18047 | 120.40552 | 13462 ft | 388 kts | 165° |
| 2026-04-14 12:12 | 36.15447 | 120.41536 | 14408 ft | 394 kts | 165° |
| 2026-04-14 12:12 | 36.12808 | 120.42546 | 15387 ft | 399 kts | 165° |
| 2026-04-14 12:13 | 36.10146 | 120.43574 | 16391 ft | 403 kts | 165° |
| 2026-04-14 12:13 | 36.07449 | 120.44617 | 17359 ft | 408 kts | 165° |
| 2026-04-14 12:13 | 36.04718 | 120.45675 | 18285 ft | 414 kts | 166° |
| 2026-04-14 12:13 | 36.01944 | 120.46750 | 19100 ft | 420 kts | 166° |
| 2026-04-14 12:14 | 35.99144 | 120.47834 | 19907 ft | 424 kts | 166° |
| 2026-04-14 12:14 | 35.96307 | 120.48930 | 20729 ft | 429 kts | 166° |
| 2026-04-14 12:14 | 35.93472 | 120.50196 | 21539 ft | 437 kts | 161° |
| 2026-04-14 12:14 | 35.90669 | 120.51733 | 22325 ft | 443 kts | 159° |
| 2026-04-14 12:15 | 35.87862 | 120.53365 | 23065 ft | 450 kts | 159° |
| 2026-04-14 12:15 | 35.85045 | 120.54994 | 23713 ft | 456 kts | 160° |
| 2026-04-14 12:15 | 35.82109 | 120.56652 | 24366 ft | 460 kts | 160° |
| 2026-04-14 12:15 | 35.79217 | 120.58251 | 25083 ft | 462 kts | 161° |
| 2026-04-14 12:16 | 35.76276 | 120.59859 | 25786 ft | 464 kts | 161° |
| 2026-04-14 12:16 | 35.73308 | 120.61479 | 26446 ft | 468 kts | 161° |
| 2026-04-14 12:16 | 35.70355 | 120.63205 | 27062 ft | 474 kts | 158° |
| 2026-04-14 12:16 | 35.67451 | 120.65196 | 27668 ft | 480 kts | 155° |
| 2026-04-14 12:17 | 35.64561 | 120.67282 | 28251 ft | 484 kts | 155° |
| 2026-04-14 12:17 | 35.61632 | 120.69343 | 28816 ft | 486 kts | 156° |
| 2026-04-14 12:17 | 35.58668 | 120.71355 | 29466 ft | 487 kts | 157° |
| 2026-04-14 12:17 | 35.55814 | 120.73635 | 29843 ft | 500 kts | 144° |
| 2026-04-14 12:18 | 35.53517 | 120.76940 | 30179 ft | 521 kts | 125° |
| 2026-04-14 12:18 | 35.52119 | 120.81093 | 30552 ft | 535 kts | 106° |
| 2026-04-14 12:18 | 35.51791 | 120.85658 | 31074 ft | 541 kts | 88° |
| 2026-04-14 12:18 | 35.52483 | 120.90191 | 31645 ft | 541 kts | 70° |
| 2026-04-14 12:19 | 35.53908 | 120.94426 | 32230 ft | 532 kts | 65° |
| 2026-04-14 12:19 | 35.55433 | 120.98475 | 32812 ft | 531 kts | 63° |
| 2026-04-14 12:19 | 35.58802 | 121.06734 | 33180 ft | 545 kts | 62° |
| 2026-04-14 12:20 | 35.60460 | 121.10924 | 33711 ft | 543 kts | 63° |
| 2026-04-14 12:20 | 35.62062 | 121.15135 | 34258 ft | 541 kts | 64° |
| 2026-04-14 12:20 | 35.63621 | 121.19344 | 34633 ft | 542 kts | 64° |
| 2026-04-14 12:20 | 35.65174 | 121.23581 | 34919 ft | 545 kts | 64° |
| 2026-04-14 12:21 | 35.66732 | 121.27834 | 35263 ft | 545 kts | 64° |
| 2026-04-14 12:21 | 35.68280 | 121.32038 | 35597 ft | 547 kts | 64° |
| 2026-04-14 12:21 | 35.69857 | 121.36312 | 35824 ft | 551 kts | 64° |
| 2026-04-14 12:21 | 35.71443 | 121.40620 | 36139 ft | 552 kts | 64° |
| 2026-04-14 12:22 | 35.73025 | 121.44933 | 36492 ft | 552 kts | 64° |
| 2026-04-14 12:22 | 35.74605 | 121.49251 | 36824 ft | 553 kts | 64° |
| 2026-04-14 12:22 | 35.76187 | 121.53581 | 36956 ft | 558 kts | 64° |
| 2026-04-14 12:22 | 35.77782 | 121.57950 | 36988 ft | 561 kts | 64° |
| 2026-04-14 12:23 | 35.80967 | 121.66701 | 37001 ft | 556 kts | 64° |
| 2026-04-14 12:23 | 35.84090 | 121.75302 | 37048 ft | 552 kts | 64° |
| 2026-04-14 12:24 | 35.87218 | 121.83935 | 37088 ft | 552 kts | 64° |
| 2026-04-14 12:24 | 35.90349 | 121.92599 | 37100 ft | 554 kts | 64° |
| 2026-04-14 12:25 | 35.93486 | 122.01302 | 37087 ft | 557 kts | 64° |
| 2026-04-14 12:25 | 35.96634 | 122.10067 | 37078 ft | 558 kts | 64° |
| 2026-04-14 12:26 | 35.99679 | 122.18571 | 37122 ft | 555 kts | 64° |
| 2026-04-14 12:26 | 36.02791 | 122.27284 | 37134 ft | 557 kts | 64° |
| 2026-04-14 12:27 | 36.05922 | 122.36070 | 37082 ft | 558 kts | 64° |
| 2026-04-14 12:27 | 36.09049 | 122.44871 | 37104 ft | 559 kts | 64° |
| 2026-04-14 12:28 | 36.12150 | 122.53628 | 37086 ft | 559 kts | 64° |
| 2026-04-14 12:28 | 36.15265 | 122.62450 | 37090 ft | 559 kts | 64° |
| 2026-04-14 12:29 | 36.18372 | 122.71270 | 37095 ft | 559 kts | 64° |
| 2026-04-14 12:29 | 36.21475 | 122.80107 | 37091 ft | 558 kts | 64° |
| 2026-04-14 12:30 | 36.24562 | 122.88922 | 37089 ft | 557 kts | 64° |
| 2026-04-14 12:30 | 36.27642 | 122.97744 | 37096 ft | 557 kts | 64° |
| 2026-04-14 12:31 | 36.30714 | 123.06570 | 37095 ft | 557 kts | 64° |
| 2026-04-14 12:31 | 36.33762 | 123.15351 | 37091 ft | 558 kts | 64° |
| 2026-04-14 12:32 | 36.36830 | 123.24215 | 37120 ft | 558 kts | 64° |
| 2026-04-14 12:32 | 36.40197 | 123.32862 | 37082 ft | 553 kts | 52° |
| 2026-04-14 12:33 | 36.45164 | 123.39978 | 37098 ft | 539 kts | 35° |
| 2026-04-14 12:33 | 36.50159 | 123.44441 | 37130 ft | 529 kts | 25° |
| 2026-04-14 12:34 | 36.57361 | 123.50255 | 37089 ft | 531 kts | 26° |
| 2026-04-14 12:34 | 36.62467 | 123.54521 | 37089 ft | 532 kts | 26° |
| 2026-04-14 12:35 | 36.68598 | 123.59702 | 37114 ft | 532 kts | 26° |
| 2026-04-14 12:35 | 36.74742 | 123.64830 | 37095 ft | 531 kts | 26° |
| 2026-04-14 12:36 | 36.80897 | 123.69945 | 37066 ft | 530 kts | 26° |
| 2026-04-14 12:36 | 36.87026 | 123.75058 | 37095 ft | 530 kts | 26° |
| 2026-04-14 12:37 | 36.93153 | 123.80187 | 37081 ft | 529 kts | 26° |
| 2026-04-14 12:37 | 36.99265 | 123.85316 | 37122 ft | 529 kts | 26° |
| 2026-04-14 12:38 | 37.08389 | 123.92989 | 37088 ft | 528 kts | 26° |
| 2026-04-14 12:39 | 37.14130 | 123.98762 | 37103 ft | 542 kts | 47° |
| 2026-04-14 12:39 | 37.16093 | 124.02839 | 37094 ft | 552 kts | 64° |
| 2026-04-14 12:39 | 37.17197 | 124.07477 | 37085 ft | 556 kts | 83° |
| 2026-04-14 12:40 | 37.17396 | 124.17141 | 37093 ft | 555 kts | 91° |
| 2026-04-14 12:40 | 37.17646 | 124.26825 | 37079 ft | 559 kts | 89° |
| 2026-04-14 12:41 | 37.17902 | 124.36595 | 37094 ft | 562 kts | 90° |
| 2026-04-14 12:41 | 37.18109 | 124.46427 | 37113 ft | 564 kts | 90° |
| 2026-04-14 12:42 | 37.18331 | 124.56276 | 37084 ft | 566 kts | 89° |
| 2026-04-14 12:42 | 37.18549 | 124.66139 | 37076 ft | 565 kts | 89° |
| 2026-04-14 12:43 | 37.18754 | 124.75916 | 37061 ft | 564 kts | 89° |
| 2026-04-14 12:43 | 37.18952 | 124.85742 | 37070 ft | 562 kts | 89° |
| 2026-04-14 12:44 | 37.19151 | 124.95545 | 37074 ft | 562 kts | 89° |
| 2026-04-14 12:44 | 37.19345 | 125.05337 | 37094 ft | 561 kts | 89° |
| 2026-04-14 12:45 | 37.19619 | 125.20024 | 37072 ft | 562 kts | 89° |
| 2026-04-14 12:45 | 37.19791 | 125.29828 | 37055 ft | 562 kts | 90° |
| 2026-04-14 12:46 | 37.19955 | 125.39628 | 37069 ft | 562 kts | 90° |
| 2026-04-14 12:46 | 37.20112 | 125.49385 | 37069 ft | 563 kts | 90° |
| 2026-04-14 12:47 | 37.20247 | 125.59214 | 37097 ft | 564 kts | 90° |
| 2026-04-14 12:47 | 37.20370 | 125.69084 | 36997 ft | 567 kts | 90° |
| 2026-04-14 12:48 | 37.20489 | 125.78991 | 36946 ft | 567 kts | 90° |
| 2026-04-14 12:48 | 37.20601 | 125.88868 | 36965 ft | 566 kts | 90° |
| 2026-04-14 12:49 | 37.20705 | 125.98807 | 36981 ft | 575 kts | 90° |
| 2026-04-14 12:49 | 37.20800 | 126.08483 | 36972 ft | 584 kts | 90° |
| 2026-04-14 12:50 | 37.20933 | 126.23507 | 36955 ft | 566 kts | 90° |
| 2026-04-14 12:51 | 37.21008 | 126.33318 | 36955 ft | 567 kts | 90° |
| 2026-04-14 12:51 | 37.21077 | 126.43225 | 36957 ft | 568 kts | 90° |
| 2026-04-14 12:52 | 37.21140 | 126.53154 | 36931 ft | 570 kts | 90° |
| 2026-04-14 12:52 | 37.21200 | 126.63111 | 36944 ft | 571 kts | 90° |
| 2026-04-14 12:53 | 37.21253 | 126.73078 | 36952 ft | 572 kts | 90° |
| 2026-04-14 12:53 | 37.21298 | 126.83051 | 36931 ft | 571 kts | 90° |
| 2026-04-14 12:54 | 37.21499 | 126.92918 | 36930 ft | 568 kts | 81° |
| 2026-04-14 12:54 | 37.22415 | 126.97778 | 36948 ft | 563 kts | 67° |
| 2026-04-14 12:54 | 37.23947 | 127.02202 | 36935 ft | 557 kts | 56° |
| 2026-04-14 12:54 | 37.26032 | 127.06253 | 36939 ft | 545 kts | 43° |
| 2026-04-14 12:55 | 37.28559 | 127.09767 | 36954 ft | 540 kts | 39° |
| 2026-04-14 12:55 | 37.33662 | 127.16633 | 36953 ft | 542 kts | 40° |
| 2026-04-14 12:56 | 37.38720 | 127.23711 | 36931 ft | 544 kts | 41° |
| 2026-04-14 12:56 | 37.43735 | 127.30844 | 36954 ft | 544 kts | 41° |
| 2026-04-14 12:57 | 37.48051 | 127.38795 | 36941 ft | 558 kts | 59° |
| 2026-04-14 12:57 | 37.50563 | 127.48016 | 36950 ft | 563 kts | 77° |
| 2026-04-14 12:58 | 37.51940 | 127.57741 | 36941 ft | 562 kts | 78° |
| 2026-04-14 12:58 | 37.53435 | 127.67372 | 36944 ft | 559 kts | 76° |
| 2026-04-14 12:59 | 37.54987 | 127.76991 | 36961 ft | 560 kts | 76° |
| 2026-04-14 12:59 | 37.56497 | 127.86563 | 36992 ft | 561 kts | 77° |
| 2026-04-14 13:00 | 37.58013 | 127.96239 | 36968 ft | 562 kts | 77° |
| 2026-04-14 13:00 | 37.59524 | 128.05928 | 36993 ft | 563 kts | 77° |
| 2026-04-14 13:01 | 37.61031 | 128.15628 | 37016 ft | 564 kts | 77° |
| 2026-04-14 13:01 | 37.62530 | 128.25300 | 37027 ft | 564 kts | 77° |
| 2026-04-14 13:02 | 37.64029 | 128.35020 | 37030 ft | 564 kts | 77° |
| 2026-04-14 13:02 | 37.65520 | 128.44732 | 37046 ft | 562 kts | 77° |
| 2026-04-14 13:03 | 37.66998 | 128.54426 | 37078 ft | 561 kts | 77° |
| 2026-04-14 13:03 | 37.68451 | 128.64102 | 37056 ft | 561 kts | 77° |
| 2026-04-14 13:04 | 37.68948 | 128.73803 | 37076 ft | 557 kts | 99° |
| 2026-04-14 13:04 | 37.68131 | 128.78571 | 37060 ft | 554 kts | 111° |
| 2026-04-14 13:04 | 37.66690 | 128.83032 | 37067 ft | 545 kts | 124° |
| 2026-04-14 13:05 | 37.62711 | 128.91089 | 37055 ft | 542 kts | 128° |
| 2026-04-14 13:05 | 37.58691 | 128.99173 | 37059 ft | 546 kts | 127° |
| 2026-04-14 13:06 | 37.54719 | 129.07388 | 37067 ft | 549 kts | 127° |
| 2026-04-14 13:06 | 37.50754 | 129.15643 | 37052 ft | 551 kts | 127° |
| 2026-04-14 13:07 | 37.46798 | 129.23839 | 37062 ft | 551 kts | 127° |
| 2026-04-14 13:07 | 37.42802 | 129.32081 | 37055 ft | 551 kts | 127° |
| 2026-04-14 13:08 | 37.38807 | 129.40322 | 37045 ft | 551 kts | 127° |
| 2026-04-14 13:08 | 37.34811 | 129.48556 | 37053 ft | 550 kts | 127° |
| 2026-04-14 13:09 | 37.30820 | 129.56758 | 37049 ft | 550 kts | 127° |
| 2026-04-14 13:09 | 37.26823 | 129.64949 | 37043 ft | 549 kts | 127° |
| 2026-04-14 13:10 | 37.22824 | 129.73125 | 37048 ft | 549 kts | 127° |
| 2026-04-14 13:10 | 37.18838 | 129.81259 | 37029 ft | 550 kts | 127° |
| 2026-04-14 13:11 | 37.14819 | 129.89426 | 37042 ft | 550 kts | 127° |
| 2026-04-14 13:11 | 37.10774 | 129.97597 | 37047 ft | 551 kts | 127° |
| 2026-04-14 13:12 | 37.06751 | 130.05703 | 37026 ft | 552 kts | 127° |
| 2026-04-14 13:12 | 37.02690 | 130.13874 | 37023 ft | 552 kts | 127° |
| 2026-04-14 13:13 | 36.98617 | 130.22049 | 37033 ft | 555 kts | 127° |
| 2026-04-14 13:13 | 36.94512 | 130.30270 | 37028 ft | 557 kts | 127° |
| 2026-04-14 13:14 | 36.90397 | 130.38493 | 37035 ft | 559 kts | 128° |
| 2026-04-14 13:14 | 36.86264 | 130.46731 | 37034 ft | 560 kts | 128° |
| 2026-04-14 13:15 | 36.82124 | 130.54963 | 37021 ft | 560 kts | 128° |
| 2026-04-14 13:15 | 36.78006 | 130.63135 | 37025 ft | 559 kts | 128° |
| 2026-04-14 13:16 | 36.73853 | 130.71351 | 37021 ft | 559 kts | 128° |
| 2026-04-14 13:16 | 36.69697 | 130.79544 | 37020 ft | 558 kts | 128° |